Time;durP1;ratioP1;P1;durP2;ratioP2;P2;SDS_P1;SDS_P2;PMS_P1;PMS_P2;Temp;Humidity;BMP_temperature;BMP_pressure;BME280_temperature;BME280_humidity;BME280_pressure;Samples;Min_cycle;Max_cycle;Signal;HPM_P1;HPM_P2
2022/10/11 00:02:23;;;;;;;7.73;2.77;;;8.00;99.90;;;;;;4999270;28;40032;-80
2022/10/11 00:04:49;;;;;;;5.63;2.30;;;8.00;99.90;;;;;;5014721;28;38506;-79
2022/10/11 00:07:17;;;;;;;10.20;3.27;;;8.00;99.90;;;;;;5024801;28;38490;-79
2022/10/11 00:09:45;;;;;;;7.67;2.27;;;8.00;99.90;;;;;;5022234;28;37108;-79
2022/10/11 00:12:11;;;;;;;9.63;2.70;;;8.00;99.90;;;;;;4988062;28;38733;-80
2022/10/11 00:14:38;;;;;;;7.37;2.57;;;8.00;99.90;;;;;;5006943;28;37938;-80
2022/10/11 00:17:06;;;;;;;8.87;3.03;;;8.00;99.90;;;;;;5002871;28;38330;-80
2022/10/11 00:19:33;;;;;;;9.63;3.17;;;8.00;99.90;;;;;;5024834;28;37850;-80
2022/10/11 00:22:00;;;;;;;9.77;2.97;;;7.90;99.90;;;;;;5021390;28;38669;-80
2022/10/11 00:24:28;;;;;;;11.03;2.70;;;7.90;99.90;;;;;;5019323;28;38428;-80
2022/10/11 00:26:55;;;;;;;11.23;2.57;;;7.90;99.90;;;;;;5006583;28;36653;-79
2022/10/11 00:29:22;;;;;;;8.37;2.33;;;7.90;99.90;;;;;;5006300;28;37595;-80
2022/10/11 00:31:50;;;;;;;8.37;2.20;;;7.90;99.90;;;;;;4992748;28;38296;-79
2022/10/11 00:34:16;;;;;;;10.93;2.43;;;7.90;99.90;;;;;;5009837;28;37707;-80
2022/10/11 00:36:44;;;;;;;8.13;2.30;;;7.90;99.90;;;;;;5028210;28;37837;-79
2022/10/11 00:39:11;;;;;;;6.17;2.57;;;7.90;99.90;;;;;;5007926;28;38312;-79
2022/10/11 00:41:39;;;;;;;9.10;3.07;;;7.90;99.90;;;;;;5011921;28;37469;-79
2022/10/11 00:44:12;;;;;;;12.40;2.80;;;7.80;99.90;;;;;;5020284;28;39061;-79
2022/10/11 00:46:43;;;;;;;8.48;2.65;;;7.80;99.90;;;;;;5009912;28;38099;-80
2022/10/11 00:49:33;;;;;;;8.40;2.37;;;7.80;99.90;;;;;;5011009;28;37210;-79
2022/10/11 00:52:28;;;;;;;7.07;1.97;;;7.70;99.90;;;;;;5011279;28;37687;-79
2022/10/11 00:54:55;;;;;;;8.90;2.63;;;7.70;99.90;;;;;;5026911;28;49642;-79
2022/10/11 00:57:26;;;;;;;7.97;2.57;;;7.70;99.90;;;;;;5009471;28;37131;-79
2022/10/11 00:59:55;;;;;;;5.27;2.23;;;7.70;99.90;;;;;;5009473;28;36058;-79
2022/10/11 01:02:22;;;;;;;6.07;2.17;;;7.70;99.90;;;;;;5352154;23;37761;-80
2022/10/11 01:04:49;;;;;;;8.07;2.13;;;7.70;99.90;;;;;;5028324;28;38877;-80
2022/10/11 01:07:18;;;;;;;9.43;2.17;;;7.70;99.90;;;;;;5008870;28;39920;-80
2022/10/11 01:09:44;;;;;;;8.13;2.30;;;7.60;99.90;;;;;;5033134;28;38664;-80
2022/10/11 01:12:17;;;;;;;5.87;1.80;;;7.60;99.90;;;;;;5011132;28;40747;-80
2022/10/11 01:14:57;;;;;;;;;;;7.60;99.90;;;;;;5020186;28;38323;-80
2022/10/11 01:17:30;;;;;;;5.67;2.80;;;7.60;99.90;;;;;;5036164;28;37506;-80
2022/10/11 01:20:14;;;;;;;9.67;2.37;;;7.50;99.90;;;;;;5036672;28;36420;-80
2022/10/11 01:23:10;;;;;;;8.00;2.90;;;7.50;99.90;;;;;;5011344;28;46527;-80
2022/10/11 01:25:54;;;;;;;8.03;2.70;;;7.50;99.90;;;;;;5004209;28;49024;-80
2022/10/11 01:28:49;;;;;;;13.40;2.43;;;7.50;99.90;;;;;;5014996;28;38619;-81
2022/10/11 01:32:01;;;;;;;8.30;2.30;;;7.50;99.90;;;;;;5023163;28;37740;-80
2022/10/11 01:34:33;;;;;;;7.03;2.30;;;7.40;99.90;;;;;;5014478;28;38556;-80
2022/10/11 01:37:24;;;;;;;7.53;2.23;;;7.40;99.90;;;;;;5030928;28;38538;-80
2022/10/11 01:40:02;;;;;;;8.87;2.30;;;7.40;99.90;;;;;;5010802;28;47350;-81
2022/10/11 01:42:29;;;;;;;10.03;2.20;;;7.40;99.90;;;;;;5013077;28;35809;-80
2022/10/11 01:44:57;;;;;;;7.90;2.50;;;7.40;99.90;;;;;;5020783;28;39606;-80
2022/10/11 01:47:24;;;;;;;10.13;2.37;;;7.30;99.90;;;;;;5011608;28;36991;-80
2022/10/11 01:49:56;;;;;;;7.97;2.10;;;7.30;99.90;;;;;;5034553;28;39137;-80
2022/10/11 01:52:25;;;;;;;8.73;2.42;;;7.30;99.90;;;;;;5036367;28;37538;-80
2022/10/11 01:55:21;;;;;;;6.37;1.80;;;7.30;99.90;;;;;;5015642;28;39299;-80
2022/10/11 01:58:15;;;;;;;10.17;2.17;;;7.30;99.90;;;;;;5031276;28;47051;-80
2022/10/11 02:00:51;;;;;;;;;;;7.30;99.90;;;;;;5030349;28;47116;-80
2022/10/11 02:03:39;;;;;;;8.83;2.63;;;7.20;99.90;;;;;;5034823;28;37425;-80
2022/10/11 02:06:11;;;;;;;9.50;1.83;;;7.20;99.90;;;;;;5011021;28;37673;-80
2022/10/11 02:08:51;;;;;;;10.55;2.17;;;7.20;99.90;;;;;;5044803;28;38767;-81
2022/10/11 02:11:21;;;;;;;7.93;2.37;;;7.20;99.90;;;;;;5023641;28;36924;-80
2022/10/11 02:14:14;;;;;;;10.80;2.43;;;7.10;99.90;;;;;;5020502;28;37472;-80
2022/10/11 02:17:18;;;;;;;12.77;2.65;;;7.10;99.90;;;;;;5019454;28;47294;-80
2022/10/11 02:19:51;;;;;;;9.20;1.97;;;7.00;99.90;;;;;;4959726;28;47218;-80
2022/10/11 02:22:23;;;;;;;9.88;2.60;;;7.00;99.90;;;;;;5026597;28;36583;-81
2022/10/11 02:24:54;;;;;;;8.02;2.63;;;7.00;99.90;;;;;;5035814;28;37315;-80
2022/10/11 02:27:24;;;;;;;6.60;2.10;;;7.00;99.90;;;;;;5013881;28;39821;-81
2022/10/11 02:29:53;;;;;;;6.73;2.20;;;7.00;99.90;;;;;;5042675;28;38984;-80
2022/10/11 02:32:21;;;;;;;6.63;1.87;;;7.00;99.90;;;;;;5033825;28;38651;-80
2022/10/11 02:34:56;;;;;;;8.20;1.63;;;6.90;99.90;;;;;;5037721;28;37494;-80
2022/10/11 02:37:46;;;;;;;9.73;2.30;;;7.00;99.90;;;;;;5023625;28;38638;-81
2022/10/11 02:40:22;;;;;;;11.47;2.30;;;6.90;99.90;;;;;;5037371;28;39730;-80
2022/10/11 02:42:57;;;;;;;7.67;2.10;;;6.90;99.90;;;;;;5013939;28;37136;-81
2022/10/11 02:45:31;;;;;;;5.73;1.60;;;6.90;99.90;;;;;;5037005;28;37577;-80
2022/10/11 02:47:58;;;;;;;8.67;2.07;;;6.90;99.90;;;;;;5032787;28;37441;-80
2022/10/11 02:50:25;;;;;;;4.27;1.70;;;6.80;99.90;;;;;;5033828;28;38191;-80
2022/10/11 02:52:51;;;;;;;6.00;1.87;;;6.80;99.90;;;;;;5032351;28;39330;-80
2022/10/11 02:55:17;;;;;;;5.80;2.10;;;6.70;99.90;;;;;;5043141;28;36782;-80
2022/10/11 02:57:43;;;;;;;9.80;2.50;;;6.80;99.90;;;;;;5017263;28;37375;-80
2022/10/11 03:00:10;;;;;;;8.43;2.73;;;6.70;99.90;;;;;;5034442;28;38368;-81
2022/10/11 03:02:36;;;;;;;6.27;2.23;;;6.70;99.90;;;;;;5016355;28;37944;-80
2022/10/11 03:05:03;;;;;;;8.33;2.00;;;6.70;99.90;;;;;;5032796;28;37420;-80
2022/10/11 03:07:29;;;;;;;6.43;1.73;;;6.70;99.90;;;;;;5020283;28;38843;-80
2022/10/11 03:09:55;;;;;;;5.97;2.30;;;6.70;99.90;;;;;;5015815;28;37649;-80
2022/10/11 03:12:21;;;;;;;6.83;2.30;;;6.70;99.90;;;;;;5021555;28;36838;-80
2022/10/11 03:14:47;;;;;;;10.30;2.30;;;6.60;99.90;;;;;;5016860;28;35612;-80
2022/10/11 03:17:13;;;;;;;6.30;2.13;;;6.60;99.90;;;;;;5022251;28;37765;-80
2022/10/11 03:19:39;;;;;;;7.13;1.80;;;6.60;99.90;;;;;;5024785;28;37712;-80
2022/10/11 03:22:06;;;;;;;8.90;1.60;;;6.60;99.90;;;;;;5020283;28;36765;-80
2022/10/11 03:24:32;;;;;;;10.60;2.30;;;6.60;99.90;;;;;;5042300;28;37704;-81
2022/10/11 03:26:58;;;;;;;5.40;2.17;;;6.60;99.90;;;;;;5021198;28;37460;-80
2022/10/11 03:29:24;;;;;;;6.03;2.00;;;6.60;99.90;;;;;;5024443;28;37240;-81
2022/10/11 03:31:50;;;;;;;6.03;1.97;;;6.60;99.90;;;;;;5026110;28;36918;-80
2022/10/11 03:34:16;;;;;;;9.90;2.20;;;6.50;99.90;;;;;;5016543;28;36023;-80
2022/10/11 03:36:42;;;;;;;10.07;2.50;;;6.50;99.90;;;;;;5045511;28;39202;-81
2022/10/11 03:39:08;;;;;;;8.87;2.00;;;6.60;99.90;;;;;;5019753;28;39065;-81
2022/10/11 03:41:34;;;;;;;8.23;2.13;;;6.60;99.90;;;;;;5023638;28;37208;-80
2022/10/11 03:44:00;;;;;;;10.00;2.00;;;6.60;99.90;;;;;;5026264;28;35937;-80
2022/10/11 03:46:27;;;;;;;5.97;1.97;;;6.60;99.90;;;;;;5038423;28;39928;-80
2022/10/11 03:48:53;;;;;;;4.63;1.60;;;6.60;99.90;;;;;;5021891;28;37189;-80
2022/10/11 03:51:19;;;;;;;10.77;2.40;;;6.60;99.90;;;;;;5016392;28;40634;-80
2022/10/11 03:53:45;;;;;;;5.57;2.23;;;6.60;99.90;;;;;;5034582;28;37253;-81
2022/10/11 03:56:12;;;;;;;5.17;2.00;;;6.60;99.90;;;;;;5034793;28;39978;-81
2022/10/11 03:58:39;;;;;;;9.13;2.90;;;6.60;99.90;;;;;;5028014;28;37528;-80
2022/10/11 04:01:06;;;;;;;7.40;1.73;;;6.60;99.90;;;;;;5043294;28;40700;-80
2022/10/11 04:03:32;;;;;;;3.40;1.60;;;6.60;99.90;;;;;;5043479;28;37713;-80
2022/10/11 04:05:58;;;;;;;7.93;2.07;;;6.60;99.90;;;;;;5023676;28;39738;-80
2022/10/11 04:08:24;;;;;;;6.17;1.77;;;6.60;99.90;;;;;;5042707;28;39983;-80
2022/10/11 04:10:50;;;;;;;7.63;2.63;;;6.60;99.90;;;;;;5027450;28;36894;-80
2022/10/11 04:13:17;;;;;;;7.87;2.40;;;6.60;99.90;;;;;;5047364;28;37598;-80
2022/10/11 04:15:43;;;;;;;5.80;1.80;;;6.60;99.90;;;;;;5029394;28;39278;-80
2022/10/11 04:18:10;;;;;;;5.20;1.93;;;6.70;99.90;;;;;;5042169;28;39015;-80
2022/10/11 04:20:36;;;;;;;12.97;2.07;;;6.70;99.90;;;;;;5039202;28;38918;-80
2022/10/11 04:23:02;;;;;;;5.47;2.17;;;6.80;99.90;;;;;;5027546;28;36426;-80
2022/10/11 04:25:28;;;;;;;9.13;2.57;;;6.80;99.90;;;;;;5042041;28;39425;-80
2022/10/11 04:27:55;;;;;;;8.53;2.27;;;6.80;99.90;;;;;;5039339;28;39820;-80
2022/10/11 04:30:21;;;;;;;8.20;1.70;;;6.80;99.90;;;;;;5045218;28;38812;-80
2022/10/11 04:32:48;;;;;;;7.47;1.70;;;6.80;99.90;;;;;;5023476;28;36146;-80
2022/10/11 04:35:14;;;;;;;7.83;2.37;;;6.80;99.90;;;;;;5040898;28;38652;-81
2022/10/11 04:37:40;;;;;;;4.73;1.70;;;6.80;99.90;;;;;;5042335;28;38609;-80
2022/10/11 04:40:07;;;;;;;9.00;2.20;;;6.80;99.90;;;;;;5023541;28;39730;-81
2022/10/11 04:42:34;;;;;;;8.13;1.87;;;6.90;99.90;;;;;;5022246;28;37577;-81
2022/10/11 04:45:00;;;;;;;8.27;2.17;;;6.90;99.90;;;;;;5019464;28;37181;-80
2022/10/11 04:47:27;;;;;;;5.17;2.17;;;6.90;99.90;;;;;;5020762;28;37246;-81
2022/10/11 04:49:53;;;;;;;10.40;2.40;;;7.00;99.90;;;;;;5025479;28;38441;-81
2022/10/11 04:52:19;;;;;;;6.23;3.07;;;7.00;99.90;;;;;;5030584;28;36529;-81
2022/10/11 04:54:46;;;;;;;13.03;2.43;;;7.10;99.90;;;;;;5034121;28;39771;-80
2022/10/11 04:57:14;;;;;;;8.93;2.43;;;7.20;99.90;;;;;;5021242;28;37433;-81
2022/10/11 04:59:41;;;;;;;8.73;2.20;;;7.20;99.90;;;;;;5029685;28;40680;-81
2022/10/11 05:02:08;;;;;;;9.37;2.50;;;7.10;99.90;;;;;;5015749;28;37728;-80
2022/10/11 05:04:36;;;;;;;9.20;2.27;;;7.20;99.90;;;;;;5014733;28;38732;-81
2022/10/11 05:07:03;;;;;;;8.13;2.20;;;7.20;99.90;;;;;;5016130;28;40407;-81
2022/10/11 05:09:29;;;;;;;5.77;2.17;;;7.20;99.90;;;;;;5030570;28;37681;-81
2022/10/11 05:11:56;;;;;;;5.73;2.00;;;7.20;99.90;;;;;;5039388;28;38043;-80
2022/10/11 05:14:23;;;;;;;7.70;2.10;;;7.20;99.90;;;;;;5016300;28;37776;-80
2022/10/11 05:16:49;;;;;;;5.50;1.90;;;7.30;99.90;;;;;;5015736;28;38873;-81
2022/10/11 05:19:16;;;;;;;9.30;2.47;;;7.30;99.90;;;;;;5020669;28;37276;-81
2022/10/11 05:21:42;;;;;;;8.47;1.90;;;7.30;99.90;;;;;;5019872;28;36483;-80
2022/10/11 05:24:09;;;;;;;6.93;2.00;;;7.30;99.90;;;;;;5023369;28;37800;-80
2022/10/11 05:26:35;;;;;;;8.27;2.30;;;7.30;99.90;;;;;;5034722;28;38785;-80
2022/10/11 05:29:02;;;;;;;6.50;1.73;;;7.30;99.90;;;;;;5025901;28;38512;-80
2022/10/11 05:31:28;;;;;;;5.47;2.00;;;7.40;99.90;;;;;;5022380;28;36416;-80
2022/10/11 05:33:54;;;;;;;4.23;1.40;;;7.40;99.90;;;;;;5039636;28;39242;-80
2022/10/11 05:36:20;;;;;;;6.77;1.93;;;7.50;99.90;;;;;;5025071;28;37545;-81
2022/10/11 05:38:47;;;;;;;7.80;2.80;;;7.60;99.90;;;;;;5024405;28;37111;-81
2022/10/11 05:41:14;;;;;;;7.73;2.60;;;7.60;99.90;;;;;;5025667;28;36447;-81
2022/10/11 05:43:41;;;;;;;9.03;3.20;;;7.60;99.90;;;;;;5025186;28;38049;-81
2022/10/11 05:46:07;;;;;;;4.00;2.40;;;7.60;99.90;;;;;;5028282;28;37247;-81
2022/10/11 05:48:33;;;;;;;5.60;2.67;;;7.70;99.90;;;;;;5024719;28;37622;-81
2022/10/11 05:51:05;;;;;;;8.27;2.93;;;7.70;99.90;;;;;;5015630;28;36595;-80
2022/10/11 05:53:31;;;;;;;6.87;3.07;;;7.70;99.90;;;;;;5014384;28;46723;-81
2022/10/11 05:55:58;;;;;;;8.20;3.03;;;7.70;99.90;;;;;;5022399;28;38104;-79
2022/10/11 05:58:25;;;;;;;6.63;2.60;;;7.70;99.90;;;;;;5005608;28;37822;-79
2022/10/11 06:00:51;;;;;;;6.33;2.70;;;7.70;99.90;;;;;;5025526;28;36871;-80
2022/10/11 06:03:18;;;;;;;6.93;2.97;;;7.80;99.90;;;;;;5030294;28;38944;-80
2022/10/11 06:05:45;;;;;;;12.93;2.93;;;7.80;99.90;;;;;;5035692;28;38206;-80
2022/10/11 06:08:12;;;;;;;10.70;3.00;;;7.80;99.90;;;;;;5012043;28;39468;-80
2022/10/11 06:10:39;;;;;;;14.70;5.13;;;7.90;99.90;;;;;;5040174;28;37151;-80
2022/10/11 06:13:06;;;;;;;8.43;4.03;;;7.90;99.90;;;;;;5016365;28;39333;-79
2022/10/11 06:15:32;;;;;;;10.57;4.30;;;7.90;99.90;;;;;;5054184;28;38613;-79
2022/10/11 06:17:59;;;;;;;11.20;4.30;;;7.90;99.90;;;;;;5017671;28;38940;-79
2022/10/11 06:20:25;;;;;;;10.93;3.63;;;7.90;99.90;;;;;;5017870;28;35977;-79
2022/10/11 06:22:51;;;;;;;9.13;3.70;;;7.90;99.90;;;;;;5027099;28;39436;-81
2022/10/11 06:25:17;;;;;;;7.00;3.77;;;7.90;99.90;;;;;;5026532;28;38536;-79
2022/10/11 06:27:44;;;;;;;10.83;3.60;;;7.90;99.90;;;;;;5026960;28;38772;-77
2022/10/11 06:30:10;;;;;;;7.10;3.93;;;8.00;99.90;;;;;;5020397;28;37990;-79
2022/10/11 06:32:36;;;;;;;8.73;3.93;;;8.10;99.90;;;;;;5016310;28;39285;-80
2022/10/11 06:35:04;;;;;;;11.80;5.00;;;8.10;99.90;;;;;;5021754;28;37323;-78
2022/10/11 06:37:30;;;;;;;13.77;4.57;;;8.10;99.90;;;;;;5013563;28;46967;-78
2022/10/11 06:39:56;;;;;;;8.23;4.13;;;8.10;99.90;;;;;;5016712;28;35908;-78
2022/10/11 06:42:22;;;;;;;10.10;4.63;;;8.30;99.90;;;;;;5019590;28;38423;-78
2022/10/11 06:44:48;;;;;;;12.37;5.20;;;8.30;99.90;;;;;;5013733;28;38685;-78
2022/10/11 06:47:14;;;;;;;10.53;4.73;;;8.30;99.90;;;;;;5015087;28;36671;-78
2022/10/11 06:49:41;;;;;;;10.83;5.00;;;8.40;99.90;;;;;;5041133;28;37093;-78
2022/10/11 06:52:08;;;;;;;11.07;5.13;;;8.40;99.90;;;;;;5010902;28;39805;-78
2022/10/11 06:54:34;;;;;;;13.70;5.20;;;8.50;99.90;;;;;;5035960;28;38594;-78
2022/10/11 06:57:00;;;;;;;12.80;4.43;;;8.50;99.90;;;;;;5033031;28;37758;-78
2022/10/11 06:59:26;;;;;;;8.47;5.40;;;8.60;99.90;;;;;;5024788;28;37788;-78
2022/10/11 07:01:52;;;;;;;13.10;4.53;;;8.70;99.90;;;;;;5035594;28;38768;-79
2022/10/11 07:04:21;;;;;;;11.50;4.87;;;8.80;99.90;;;;;;5018310;28;39203;-77
2022/10/11 07:06:47;;;;;;;9.67;4.47;;;8.90;99.90;;;;;;5027862;28;38763;-78
2022/10/11 07:09:13;;;;;;;12.80;5.37;;;9.00;99.90;;;;;;4996581;28;37626;-78
2022/10/11 07:11:40;;;;;;;12.73;5.93;;;9.10;99.90;;;;;;5024878;28;40041;-77
2022/10/11 07:14:06;;;;;;;13.33;4.33;;;9.30;99.90;;;;;;5007243;28;39966;-78
2022/10/11 07:16:34;;;;;;;22.40;4.53;;;9.50;99.90;;;;;;5021312;28;39214;-79
2022/10/11 07:19:03;;;;;;;11.83;3.47;;;9.70;99.90;;;;;;5019031;28;37953;-79
2022/10/11 07:21:31;;;;;;;13.70;4.30;;;9.80;99.90;;;;;;5015603;28;47040;-78
2022/10/11 07:23:57;;;;;;;18.00;4.93;;;9.90;99.90;;;;;;5017172;28;37485;-79
2022/10/11 07:26:27;;;;;;;18.63;4.07;;;10.10;99.90;;;;;;5013372;28;38218;-79
2022/10/11 07:28:54;;;;;;;14.40;4.97;;;10.20;99.90;;;;;;5036075;28;37880;-80
2022/10/11 07:31:22;;;;;;;23.03;4.93;;;10.30;99.90;;;;;;5022479;28;40296;-79
2022/10/11 07:33:49;;;;;;;17.73;4.87;;;10.30;99.90;;;;;;5029502;28;38108;-79
2022/10/11 07:36:15;;;;;;;16.47;3.80;;;10.50;99.90;;;;;;5023009;28;36908;-79
2022/10/11 07:38:43;;;;;;;16.30;3.83;;;10.60;99.90;;;;;;5016669;28;38716;-80
2022/10/11 07:41:12;;;;;;;12.63;3.72;;;10.70;99.90;;;;;;5025782;28;37552;-78
2022/10/11 07:43:58;;;;;;;15.00;4.38;;;10.70;99.90;;;;;;5030167;28;20037;-79
2022/10/11 07:46:24;;;;;;;17.90;4.37;;;10.90;99.90;;;;;;5018444;28;38330;-80
2022/10/11 07:48:50;;;;;;;17.98;4.28;;;10.90;99.90;;;;;;5024689;28;37351;-79
2022/10/11 07:51:21;;;;;;;16.02;4.18;;;11.10;99.90;;;;;;5017754;28;39726;-79
2022/10/11 07:53:54;;;;;;;9.55;3.17;;;11.20;99.90;;;;;;5034955;28;38298;-80
2022/10/11 07:56:27;;;;;;;15.73;3.85;;;11.20;99.90;;;;;;5016427;28;38791;-79
2022/10/11 07:59:00;;;;;;;11.98;2.90;;;11.30;99.90;;;;;;5016325;28;37876;-79
2022/10/11 08:01:27;;;;;;;13.43;3.33;;;11.40;99.90;;;;;;5037322;28;37926;-79
2022/10/11 08:03:56;;;;;;;11.23;2.97;;;11.40;99.90;;;;;;5013186;28;38532;-79
2022/10/11 08:06:26;;;;;;;11.30;3.97;;;11.40;99.90;;;;;;5011070;28;37094;-79
2022/10/11 08:08:52;;;;;;;11.25;3.22;;;11.40;99.90;;;;;;5031352;28;35907;-79
2022/10/11 08:11:25;;;;;;;14.50;3.50;;;11.50;99.90;;;;;;5028458;28;39299;-79
2022/10/11 08:13:52;;;;;;;12.15;3.72;;;11.60;99.90;;;;;;5014358;28;37207;-78
2022/10/11 08:16:21;;;;;;;11.57;3.22;;;11.60;99.90;;;;;;5019013;28;39396;-78
2022/10/11 08:18:48;;;;;;;16.35;3.88;;;11.70;99.90;;;;;;5019444;28;36136;-79
2022/10/11 08:21:17;;;;;;;20.70;4.85;;;11.70;99.90;;;;;;5018228;28;39177;-79
2022/10/11 08:23:43;;;;;;;12.63;3.20;;;11.70;99.90;;;;;;5016067;28;38531;-79
2022/10/11 08:26:09;;;;;;;12.73;3.42;;;11.80;99.90;;;;;;5017734;28;38639;-79
2022/10/11 08:28:36;;;;;;;13.02;3.30;;;11.80;99.90;;;;;;5038120;28;37742;-79
2022/10/11 08:31:02;;;;;;;15.70;3.65;;;11.90;99.90;;;;;;5022010;28;40494;-79
2022/10/11 08:33:28;;;;;;;18.25;3.25;;;12.00;99.90;;;;;;5023232;28;37276;-79
2022/10/11 08:35:57;;;;;;;17.10;2.85;;;12.10;99.90;;;;;;5030122;28;39244;-79
2022/10/11 08:38:23;;;;;;;12.70;2.83;;;12.10;99.90;;;;;;5017585;28;36638;-80
2022/10/11 08:40:55;;;;;;;12.25;2.95;;;12.30;99.90;;;;;;5018802;28;37550;-79
2022/10/11 08:43:42;;;;;;;11.20;2.63;;;12.40;99.90;;;;;;5017649;28;38439;-80
2022/10/11 08:46:09;;;;;;;16.40;2.58;;;12.50;99.90;;;;;;5016135;28;38635;-79
2022/10/11 08:48:44;;;;;;;10.05;3.00;;;12.50;99.90;;;;;;5036451;28;37582;-80
2022/10/11 08:51:49;;;;;;;13.93;2.72;;;12.60;99.90;;;;;;5016112;28;39494;-79
2022/10/11 08:54:28;;;;;;;9.52;2.40;;;12.60;99.90;;;;;;5030508;28;39445;-79
2022/10/11 08:56:54;;;;;;;14.93;2.58;;;12.70;99.90;;;;;;5011041;28;37852;-79
2022/10/11 08:59:28;;;;;;;14.10;2.53;;;12.80;99.90;;;;;;5018706;28;35849;-79
2022/10/11 09:02:37;;;;;;;12.50;2.63;;;12.80;99.90;;;;;;5020677;28;39749;-80
2022/10/11 09:05:04;;;;;;;12.48;2.30;;;12.90;99.90;;;;;;4939966;28;47035;-79
2022/10/11 09:07:31;;;;;;;13.85;1.98;;;13.00;99.90;;;;;;5009549;28;38221;-80
2022/10/11 09:10:22;;;;;;;11.80;2.40;;;13.00;99.90;;;;;;4998973;28;38002;-79
2022/10/11 09:12:51;;;;;;;10.75;1.92;;;13.10;99.90;;;;;;5021488;28;48227;-79
2022/10/11 09:15:26;;;;;;;7.32;1.60;;;13.10;99.90;;;;;;5024674;28;39018;-79
2022/10/11 09:18:22;;;;;;;11.10;2.10;;;13.20;99.90;;;;;;5015164;28;39121;-78
2022/10/11 09:21:10;;;;;;;10.80;2.08;;;13.10;99.90;;;;;;4950057;28;47032;-79
2022/10/11 09:24:01;;;;;;;12.30;2.42;;;13.20;99.90;;;;;;5007452;28;47040;-78
2022/10/11 09:26:35;;;;;;;9.38;1.90;;;13.20;99.90;;;;;;5010907;28;38553;-79
2022/10/11 09:29:24;;;;;;;9.25;1.80;;;13.40;99.90;;;;;;5013061;28;38464;-79
2022/10/11 09:31:53;;;;;;;11.35;2.33;;;13.40;99.90;;;;;;5029358;28;48861;-79
2022/10/11 09:34:23;;;;;;;9.65;1.95;;;13.60;99.90;;;;;;5008054;28;39264;-79
2022/10/11 09:36:59;;;;;;;8.32;1.92;;;13.70;99.90;;;;;;5024798;28;37253;-79
2022/10/11 09:39:36;;;;;;;13.75;2.50;;;13.90;99.90;;;;;;5013399;28;36900;-79
2022/10/11 09:42:06;;;;;;;10.70;2.25;;;14.10;99.90;;;;;;5009872;28;36979;-79
2022/10/11 09:44:59;;;;;;;10.63;1.80;;;14.40;99.90;;;;;;5023134;28;48353;-78
2022/10/11 09:47:27;;;;;;;14.15;1.83;;;14.60;99.90;;;;;;4996578;28;38554;-79
2022/10/11 09:49:59;;;;;;;8.95;2.00;;;14.80;99.90;;;;;;5006549;28;37313;-79
2022/10/11 09:52:26;;;;;;;11.40;2.25;;;15.10;99.90;;;;;;5012624;28;35763;-79
2022/10/11 09:54:58;;;;;;;8.18;1.55;;;15.00;99.90;;;;;;5025381;28;39666;-79
2022/10/11 09:57:29;;;;;;;13.00;2.45;;;15.10;99.90;;;;;;5031036;28;37298;-79
2022/10/11 10:00:21;;;;;;;8.95;1.73;;;15.20;99.90;;;;;;5002328;28;36955;-79
2022/10/11 10:02:50;;;;;;;11.55;2.03;;;15.40;99.90;;;;;;5030516;28;46853;-79
2022/10/11 10:05:20;;;;;;;9.38;1.85;;;15.40;99.90;;;;;;5007573;28;37813;-80
2022/10/11 10:08:08;;;;;;;10.30;2.03;;;15.60;99.90;;;;;;5007612;28;37486;-80
2022/10/11 10:10:39;;;;;;;9.48;2.00;;;15.60;99.90;;;;;;5023668;28;48008;-80
2022/10/11 10:13:25;;;;;;;12.05;2.30;;;15.90;99.90;;;;;;5010671;28;36046;-80
2022/10/11 10:15:55;;;;;;;7.22;1.92;;;16.20;99.90;;;;;;5023665;28;38559;-78
2022/10/11 10:18:33;;;;;;;12.65;2.05;;;16.40;99.90;;;;;;5007830;28;39406;-81
2022/10/11 10:21:00;;;;;;;9.25;1.80;;;16.40;99.90;;;;;;5024294;28;36998;-81
2022/10/11 10:23:35;;;;;;;7.97;2.28;;;16.50;99.90;;;;;;5017538;28;37794;-79
2022/10/11 10:26:18;;;;;;;4.35;1.17;;;16.70;99.90;;;;;;5007076;28;39887;-79
2022/10/11 10:29:08;;;;;;;8.18;2.22;;;16.80;99.90;;;;;;5020194;28;48366;-81
2022/10/11 10:31:49;;;;;;;7.65;1.60;;;17.00;99.90;;;;;;5024831;28;48701;-79
2022/10/11 10:34:21;;;;;;;7.07;1.52;;;17.10;99.90;;;;;;5016727;28;37907;-80
2022/10/11 10:36:55;;;;;;;8.35;1.67;;;17.00;99.90;;;;;;5023920;28;38587;-81
2022/10/11 10:39:43;;;;;;;8.55;1.80;;;16.60;99.90;;;;;;5004764;28;38806;-81
2022/10/11 10:42:16;;;;;;;6.63;1.35;;;16.50;99.90;;;;;;5002231;28;38018;-80
2022/10/11 10:44:45;;;;;;;7.88;1.95;;;16.40;99.90;;;;;;5023739;28;37677;-83
2022/10/11 10:47:37;;;;;;;11.00;2.25;;;16.20;99.90;;;;;;5006897;28;36930;-81
2022/10/11 10:50:15;;;;;;;11.27;2.10;;;16.20;99.90;;;;;;5001523;28;39015;-79
2022/10/11 10:52:46;;;;;;;7.03;2.20;;;16.10;99.90;;;;;;5001656;28;47518;-80
2022/10/11 10:55:37;;;;;;;8.68;1.60;;;16.10;99.90;;;;;;5020536;28;37817;-80
2022/10/11 10:58:05;;;;;;;10.10;2.25;;;16.10;99.90;;;;;;5014807;28;37264;-78
2022/10/11 11:00:44;;;;;;;11.45;2.08;;;15.90;99.90;;;;;;5002752;28;37330;-79
2022/10/11 11:03:32;;;;;;;5.97;1.50;;;15.90;99.90;;;;;;5016038;28;36934;-79
2022/10/11 11:06:11;;;;;;;6.05;1.30;;;15.80;99.90;;;;;;5019832;28;37733;-79
2022/10/11 11:09:14;;;;;;;7.28;1.88;;;15.80;99.90;;;;;;5006245;28;47448;-80
2022/10/11 11:12:06;;;;;;;7.20;1.75;;;15.80;99.90;;;;;;5009282;28;47075;-78
2022/10/11 11:15:09;;;;;;;6.07;1.40;;;15.80;99.90;;;;;;5027024;28;46841;-80
2022/10/11 11:17:54;;;;;;;8.25;1.92;;;15.90;99.90;;;;;;5014439;28;48851;-79
2022/10/11 11:20:26;;;;;;;7.63;1.63;;;15.80;99.90;;;;;;5018418;28;39506;-80
2022/10/11 11:23:07;;;;;;;4.50;1.20;;;15.70;99.90;;;;;;4981515;28;36852;-88
2022/10/11 11:25:58;;;;;;;6.65;1.33;;;15.70;99.90;;;;;;5003648;28;46960;-80
2022/10/11 11:28:36;;;;;;;8.48;1.95;;;15.90;99.90;;;;;;5015197;28;37158;-79
2022/10/11 11:31:35;;;;;;;7.95;2.00;;;15.90;99.90;;;;;;5015688;28;39598;-79
2022/10/11 11:34:22;;;;;;;6.53;1.58;;;16.00;99.90;;;;;;4997656;28;47233;-83
2022/10/11 11:37:02;;;;;;;9.35;1.83;;;16.10;99.90;;;;;;5000983;28;47031;-81
2022/10/11 11:39:33;;;;;;;8.13;2.25;;;16.00;99.90;;;;;;5015187;28;47283;-82
2022/10/11 11:42:28;;;;;;;5.25;1.77;;;16.00;99.90;;;;;;5006251;28;39573;-82
2022/10/11 11:44:54;;;;;;;7.70;1.73;;;16.10;99.90;;;;;;5004067;28;46942;-81
2022/10/11 11:47:33;;;;;;;6.95;1.92;;;16.30;99.90;;;;;;5018862;28;37930;-80
2022/10/11 11:50:13;;;;;;;10.00;1.60;;;16.50;99.90;;;;;;5001699;28;37917;-81
2022/10/11 11:52:47;;;;;;;5.72;1.52;;;16.90;99.90;;;;;;5012958;28;46897;-80
2022/10/11 11:55:26;;;;;;;8.05;1.60;;;17.50;99.90;;;;;;5012412;28;41511;-82
2022/10/11 11:58:07;;;;;;;6.78;2.00;;;17.80;99.90;;;;;;5011666;28;39062;-83
2022/10/11 12:00:50;;;;;;;7.07;1.55;;;17.80;99.90;;;;;;5001005;28;46971;-82
2022/10/11 12:03:24;;;;;;;7.53;1.65;;;17.50;99.90;;;;;;5010056;28;38436;-82
2022/10/11 12:06:13;;;;;;;10.02;1.73;;;17.20;99.90;;;;;;4989601;28;37153;-82
2022/10/11 12:08:45;;;;;;;7.50;1.70;;;16.90;99.90;;;;;;4995846;28;48886;-81
2022/10/11 12:11:26;;;;;;;10.55;1.85;;;16.80;99.90;;;;;;4985222;28;38919;-81
2022/10/11 12:13:54;;;;;;;7.20;1.70;;;16.90;99.90;;;;;;4986353;28;38993;-83
2022/10/11 12:16:21;;;;;;;9.35;1.75;;;16.90;99.90;;;;;;5002999;28;38747;-80
2022/10/11 12:18:56;;;;;;;5.95;1.10;;;16.80;99.90;;;;;;4994857;28;38811;-89
2022/10/11 12:21:31;;;;;;;6.40;1.52;;;16.70;99.90;;;;;;4992501;28;36627;-83
2022/10/11 12:24:19;;;;;;;7.55;1.50;;;16.80;99.90;;;;;;5000076;28;39569;-82
2022/10/11 12:26:57;;;;;;;5.72;1.40;;;16.80;99.90;;;;;;4979369;28;46918;-83
2022/10/11 12:29:25;;;;;;;7.10;1.45;;;16.80;99.90;;;;;;5004279;28;38252;-83
2022/10/11 12:32:00;;;;;;;9.60;1.50;;;16.80;99.90;;;;;;5003549;28;38244;-83
2022/10/11 12:34:41;;;;;;;8.23;1.65;;;16.80;99.90;;;;;;5001625;28;38663;-84
2022/10/11 12:37:16;;;;;;;12.15;2.00;;;16.90;99.90;;;;;;4985153;28;37355;-82
2022/10/11 12:39:52;;;;;;;8.73;1.55;;;17.20;99.90;;;;;;5003132;28;37639;-80
2022/10/11 12:42:31;;;;;;;7.93;1.83;;;17.40;99.90;;;;;;4998736;28;38074;-82
2022/10/11 12:45:10;;;;;;;11.13;1.80;;;17.60;99.90;;;;;;4987298;28;40866;-80
2022/10/11 12:47:41;;;;;;;9.57;1.50;;;17.80;99.90;;;;;;4988669;28;47107;-80
2022/10/11 12:50:50;;;;;;;8.77;1.80;;;17.90;99.90;;;;;;5005788;28;38802;-82
2022/10/11 12:53:25;;;;;;;10.02;1.92;;;17.70;99.90;;;;;;5000222;28;37898;-81
2022/10/11 12:56:00;;;;;;;8.60;1.35;;;17.60;99.90;;;;;;5005614;28;39339;-81
2022/10/11 12:58:39;;;;;;;8.75;1.65;;;17.60;99.90;;;;;;5004823;28;37591;-79
2022/10/11 13:01:09;;;;;;;10.27;1.92;;;17.60;99.90;;;;;;5004066;28;37867;-79
2022/10/11 13:04:09;;;;;;;8.98;1.95;;;17.30;99.90;;;;;;5004662;28;37670;-80
2022/10/11 13:06:52;;;;;;;8.60;1.45;;;17.50;99.90;;;;;;4962841;28;47043;-80
2022/10/11 13:09:34;;;;;;;9.70;1.70;;;18.00;99.90;;;;;;4989877;28;37191;-80
2022/10/11 13:12:03;;;;;;;13.18;2.00;;;18.10;99.90;;;;;;4990237;28;38587;-79
2022/10/11 13:14:34;;;;;;;8.00;1.80;;;18.20;99.90;;;;;;4987697;28;47161;-80
2022/10/11 13:17:18;;;;;;;6.18;1.85;;;18.40;99.90;;;;;;4984683;28;40303;-79
2022/10/11 13:19:45;;;;;;;10.57;1.63;;;18.60;99.90;;;;;;5010850;28;47625;-82